createdAt,value
2023-03-16T00:04:52.632Z,8
2023-03-16T00:09:52.423Z,8
2023-03-16T00:14:52.690Z,8
2023-03-16T00:19:52.630Z,8
2023-03-16T00:24:53.025Z,8
2023-03-16T00:29:53.385Z,8
2023-03-16T00:34:52.492Z,8
2023-03-16T00:39:52.548Z,8
2023-03-16T00:44:52.907Z,8
2023-03-16T00:49:53.231Z,8
2023-03-16T00:54:53.439Z,8
2023-03-16T00:59:52.787Z,8
2023-03-16T01:04:52.814Z,8
2023-03-16T01:09:52.606Z,9
2023-03-16T01:14:52.599Z,9
2023-03-16T01:19:52.560Z,9
2023-03-16T01:24:52.501Z,9
2023-03-16T01:29:52.445Z,9
2023-03-16T01:34:52.501Z,9
2023-03-16T01:39:52.448Z,9
2023-03-16T01:44:52.617Z,9
2023-03-16T01:49:52.381Z,9
2023-03-16T01:54:52.292Z,9
2023-03-16T01:59:54.367Z,8
2023-03-16T02:04:52.574Z,8
2023-03-16T02:09:52.587Z,9
2023-03-16T02:14:52.631Z,9
2023-03-16T02:19:52.418Z,9
2023-03-16T02:24:52.319Z,9
2023-03-16T02:29:52.260Z,9
2023-03-16T02:34:53.809Z,9
2023-03-16T02:39:52.755Z,9
2023-03-16T02:44:52.620Z,9
2023-03-16T02:49:52.470Z,8
2023-03-16T02:54:52.493Z,8
2023-03-16T02:59:52.258Z,8
2023-03-16T03:04:52.596Z,8
2023-03-16T03:09:52.277Z,8
2023-03-16T03:14:52.571Z,8
2023-03-16T03:19:52.489Z,8
2023-03-16T03:24:52.306Z,8
2023-03-16T03:29:52.512Z,8
2023-03-16T03:34:52.285Z,8
2023-03-16T03:39:52.382Z,8
2023-03-16T03:44:52.540Z,8
2023-03-16T03:49:53.038Z,7
2023-03-16T03:54:52.306Z,8
2023-03-16T03:59:52.536Z,8
2023-03-16T04:04:52.728Z,8
2023-03-16T04:09:52.356Z,8
2023-03-16T04:14:52.378Z,8
2023-03-16T04:19:52.390Z,8
2023-03-16T04:24:52.260Z,8
2023-03-16T04:29:52.477Z,8
2023-03-16T04:34:52.424Z,8
2023-03-16T04:39:52.194Z,8
2023-03-16T04:44:52.142Z,8
2023-03-16T04:49:52.783Z,8
2023-03-16T04:54:52.398Z,8
2023-03-16T04:59:52.143Z,8
2023-03-16T05:04:52.535Z,8
2023-03-16T05:09:52.205Z,8
2023-03-16T05:14:52.432Z,8
2023-03-16T05:19:52.391Z,7
2023-03-16T05:24:52.453Z,7
2023-03-16T05:29:52.200Z,7
2023-03-16T05:34:52.415Z,7
2023-03-16T05:39:52.292Z,7
2023-03-16T05:44:52.301Z,7
2023-03-16T05:49:52.468Z,7
2023-03-16T05:54:52.228Z,7
2023-03-16T05:59:52.253Z,7
2023-03-16T06:04:52.489Z,7
2023-03-16T06:09:52.404Z,7
2023-03-16T06:14:52.260Z,7
2023-03-16T06:19:52.322Z,7
2023-03-16T06:24:52.320Z,6
2023-03-16T06:29:52.005Z,6
2023-03-16T06:34:52.200Z,6
2023-03-16T06:39:52.273Z,6
2023-03-16T06:44:52.362Z,6
2023-03-16T06:49:52.365Z,6
2023-03-16T06:54:52.237Z,6
2023-03-16T06:59:52.582Z,6
2023-03-16T07:04:52.307Z,5
2023-03-16T07:09:52.658Z,5
2023-03-16T07:14:54.047Z,5
2023-03-16T07:19:52.167Z,5
2023-03-16T07:24:52.314Z,4
2023-03-16T07:29:52.508Z,4
2023-03-16T07:34:52.034Z,4
2023-03-16T07:39:52.104Z,4
2023-03-16T07:44:52.389Z,4
2023-03-16T07:49:52.016Z,4
2023-03-16T07:54:52.170Z,4
2023-03-16T07:59:52.657Z,4
2023-03-16T08:04:52.229Z,4
2023-03-16T08:09:52.304Z,4
2023-03-16T08:14:52.202Z,4
2023-03-16T08:19:52.286Z,4
2023-03-16T08:24:52.090Z,4
2023-03-16T08:29:52.417Z,4
2023-03-16T08:34:52.105Z,4
2023-03-16T08:39:52.116Z,4
2023-03-16T08:44:52.086Z,4
2023-03-16T08:49:52.214Z,4
2023-03-16T08:55:02.510Z,4
2023-03-16T08:59:52.242Z,4
2023-03-16T09:04:52.142Z,4
2023-03-16T09:09:52.177Z,4
2023-03-16T09:14:51.951Z,4
2023-03-16T09:19:53.974Z,4
2023-03-16T09:24:51.973Z,4
2023-03-16T09:29:52.119Z,4
2023-03-16T09:34:51.978Z,4
2023-03-16T09:39:55.854Z,4
2023-03-16T09:44:58.314Z,4
2023-03-16T09:49:51.992Z,4
2023-03-16T09:54:51.894Z,4
2023-03-16T09:59:51.885Z,4
2023-03-16T10:04:56.121Z,4
2023-03-16T10:09:52.063Z,4
2023-03-16T10:14:55.602Z,4
2023-03-16T10:19:51.902Z,4
2023-03-16T10:24:52.022Z,4
2023-03-16T10:29:51.898Z,4
2023-03-16T10:34:52.190Z,4
2023-03-16T10:39:52.019Z,4
2023-03-16T10:44:51.967Z,4
2023-03-16T10:49:51.959Z,4
2023-03-16T10:54:52.184Z,4
2023-03-16T10:59:52.057Z,4
2023-03-16T11:04:52.338Z,3
2023-03-16T11:09:51.985Z,3
2023-03-16T11:14:52.219Z,3
2023-03-16T11:19:52.151Z,3
2023-03-16T11:24:54.208Z,3
2023-03-16T11:29:52.145Z,3
2023-03-16T11:34:51.977Z,3
2023-03-16T11:40:07.022Z,3
2023-03-16T11:44:52.080Z,3
2023-03-16T11:49:56.247Z,2
2023-03-16T11:54:52.059Z,2
2023-03-16T12:00:00.645Z,2
2023-03-16T12:04:51.990Z,2
2023-03-16T12:09:52.032Z,2
2023-03-16T12:14:56.394Z,2
2023-03-16T12:19:51.949Z,2
2023-03-16T12:24:52.130Z,2
2023-03-16T12:29:51.904Z,2
2023-03-16T12:34:54.674Z,2
2023-03-16T12:39:58.184Z,2
2023-03-16T12:44:51.752Z,2
2023-03-16T12:49:52.023Z,2
2023-03-16T12:54:52.043Z,2
2023-03-16T12:59:51.910Z,2
2023-03-16T13:04:52.169Z,2
2023-03-16T13:09:51.799Z,2
2023-03-16T13:14:51.753Z,2
2023-03-16T13:20:30.324Z,1
2023-03-16T13:24:53.080Z,1
2023-03-16T13:29:51.927Z,1
2023-03-16T13:34:55.462Z,1
2023-03-16T13:39:51.935Z,1
2023-03-16T13:44:51.863Z,1
2023-03-16T13:49:51.741Z,1
2023-03-16T13:54:51.838Z,1
2023-03-16T13:59:51.755Z,1
2023-03-16T14:04:51.754Z,1
2023-03-16T14:09:51.829Z,1
2023-03-16T14:14:51.691Z,1
2023-03-16T14:19:51.862Z,1
2023-03-16T14:24:51.678Z,1
2023-03-16T14:29:51.782Z,1
2023-03-16T14:34:52.534Z,1
2023-03-16T14:39:51.934Z,1
2023-03-16T14:44:52.068Z,1
2023-03-16T14:49:51.670Z,1
2023-03-16T14:54:51.689Z,1
2023-03-16T14:59:51.808Z,1
2023-03-16T15:04:51.737Z,1
2023-03-16T15:09:51.750Z,1
2023-03-16T15:14:52.001Z,1
2023-03-16T15:19:51.773Z,1
2023-03-16T15:24:51.649Z,1
2023-03-16T15:29:51.642Z,1
2023-03-16T15:34:51.732Z,1
2023-03-16T15:39:51.858Z,1
2023-03-16T15:44:51.610Z,1
2023-03-16T15:49:51.717Z,1
2023-03-16T15:54:51.624Z,1
2023-03-16T15:59:51.724Z,1
2023-03-16T16:04:51.673Z,1
2023-03-16T16:09:51.765Z,1
2023-03-16T16:14:52.820Z,1
2023-03-16T16:19:51.830Z,1
2023-03-16T16:24:51.712Z,1
2023-03-16T16:29:51.820Z,1
2023-03-16T16:35:01.881Z,1
2023-03-16T16:39:51.982Z,1
2023-03-16T16:44:51.757Z,1
2023-03-16T16:49:51.859Z,1
2023-03-16T16:54:51.919Z,1
2023-03-16T16:59:52.330Z,1
2023-03-16T17:04:51.920Z,1
2023-03-16T17:09:51.555Z,1
2023-03-16T17:14:51.809Z,1
2023-03-16T17:19:51.642Z,1
2023-03-16T17:24:51.793Z,1
2023-03-16T17:29:51.805Z,1
2023-03-16T17:34:51.786Z,1
2023-03-16T17:39:51.803Z,1
2023-03-16T17:44:51.791Z,1
2023-03-16T17:49:51.545Z,1
2023-03-16T17:54:51.611Z,1
2023-03-16T17:59:51.657Z,1
2023-03-16T18:04:51.701Z,1
2023-03-16T18:09:51.762Z,1
2023-03-16T18:14:52.354Z,1
2023-03-16T18:19:51.731Z,1
2023-03-16T18:24:51.497Z,1
2023-03-16T18:29:51.957Z,1
2023-03-16T18:34:51.535Z,1
2023-03-16T18:39:51.477Z,1
2023-03-16T18:44:51.639Z,1
2023-03-16T18:49:51.655Z,1
2023-03-16T18:54:51.723Z,1
2023-03-16T18:59:51.631Z,1
2023-03-16T19:04:52.104Z,1
2023-03-16T19:09:51.589Z,1
2023-03-16T19:14:51.680Z,1
2023-03-16T19:19:51.809Z,1
2023-03-16T19:24:51.355Z,2
2023-03-16T19:29:52.210Z,1
2023-03-16T19:34:51.698Z,2
2023-03-16T19:39:51.600Z,2
2023-03-16T19:44:51.493Z,2
2023-03-16T19:49:51.741Z,2
2023-03-16T19:54:51.443Z,2
2023-03-16T19:59:51.522Z,2
2023-03-16T20:04:51.552Z,2
2023-03-16T20:09:51.648Z,3
2023-03-16T20:14:51.734Z,3
2023-03-16T20:19:51.544Z,3
2023-03-16T20:24:51.610Z,3
2023-03-16T20:29:51.366Z,3
2023-03-16T20:34:51.628Z,3
2023-03-16T20:39:51.424Z,3
2023-03-16T20:44:51.575Z,3
2023-03-16T20:49:51.385Z,4
2023-03-16T20:54:51.487Z,3
2023-03-16T20:59:52.314Z,3
2023-03-16T21:04:52.310Z,3
2023-03-16T21:09:51.961Z,4
2023-03-16T21:14:51.580Z,4
2023-03-16T21:19:51.540Z,4
2023-03-16T21:24:51.495Z,4
2023-03-16T21:29:51.592Z,4
2023-03-16T21:34:51.650Z,4
2023-03-16T21:39:51.479Z,4
2023-03-16T21:44:51.676Z,4
2023-03-16T21:49:51.370Z,4
2023-03-16T21:54:51.650Z,4
2023-03-16T21:59:51.527Z,4
2023-03-16T22:04:51.329Z,4
2023-03-16T22:09:51.573Z,4
2023-03-16T22:14:51.339Z,4
2023-03-16T22:19:51.398Z,4
2023-03-16T22:24:51.507Z,4
2023-03-16T22:29:51.364Z,4
2023-03-16T22:34:51.439Z,4
2023-03-16T22:39:52.191Z,4
2023-03-16T22:44:51.398Z,4
2023-03-16T22:49:51.917Z,4
2023-03-16T22:54:51.318Z,4
2023-03-16T22:59:51.526Z,4
2023-03-16T23:04:51.731Z,4
2023-03-16T23:09:51.800Z,4
2023-03-16T23:14:51.545Z,4
2023-03-16T23:19:51.579Z,4
2023-03-16T23:24:51.298Z,4
2023-03-16T23:29:51.151Z,4
2023-03-16T23:34:51.258Z,4
2023-03-16T23:39:51.373Z,4
2023-03-16T23:44:51.352Z,4
2023-03-16T23:49:51.471Z,4
2023-03-16T23:54:51.475Z,4
2023-03-16T23:59:51.233Z,4
